Station: Bicheno  

  Atmospheric Gas Attenuation - ITU Rec 676-11   ----------------- dB/100km -----------------
Date Time Temp RH % AH g/m3 Dew Point Wind Direction Speed kph Gust kph Barometer mB Rainfall Since 9am 24GHz 47GHz 76GHz 122GHz 134GHz 241GHz
08/05 09:00 12 64 6.82 5.5 19 1013.1 0.8 15.9 23.6 33.6 88.0 77.4 264.7
07/05 09:00 9 60 5.29 1.8 15 1013.1 4 12.7 22.0 29.0 75.5 60.9 206.4
06/05 09:00 17.5 52 7.75 7.6 9 1013.1 0 17.6 23.6 34.8 91.1 83.3 286.2
05/05 09:00 15.5 68 8.99 9.7 0 1013.1 17 20.3 26.0 40.5 106.3 101.3 349.0
01/05 09:00 17.5 85 12.67 14.9 4 1013.1 0 28.1 31.6 54.7 144.2 148.7 514.7
30/04 09:00 17.5 85 12.67 14.9 15 1013.1 0 28.1 31.6 54.7 144.2 148.7 514.7
29/04 09:00 14.5 57 7.09 6.2 0 1013.1 0 16.3 23.3 33.6 87.9 78.3 268.2
28/04 09:00 15 63 8.08 8 4 1013.1 0 18.4 24.7 37.2 97.4 90.2 309.9
27/04 09:00 17.5 70 10.44 12 0 1013.1 0 23.3 27.8 45.2 119.0 117.7 406.5
26/04 09:00 19.5 55 9.23 10.2 0 1013.1 0 20.6 25.3 39.4 103.5 99.3 342.3
25/04 09:00 20.5 48 8.54 9.2 4 1013.1 0 19.1 23.9 36.4 95.4 89.6 308.6
24/04 09:00 18.5 58 9.18 10.1 0 1013.1 0 20.6 25.5 39.7 104.3 99.9 344.4
23/04 09:00 17 65 9.4 10.4 4 1013.1 0.1 21.1 26.2 41.3 108.6 104.7 360.9
22/04 09:00 16 69 9.4 10.3 15 1013.1 0 21.2 26.5 41.9 110.0 106.0 365.5
21/04 09:00 16 69 9.4 10.3 4 1013.1 0 21.2 26.5 41.9 110.0 106.0 365.5
20/04 09:00 15.5 63 8.33 8.6 0 1013.1 0 18.9 25.0 37.9 99.4 92.8 319.1
19/04 09:00 14 62 7.48 6.8 4 1013.1 0 17.2 24.1 35.3 92.5 83.7 287.0
18/04 09:00 11.5 64 6.61 4.9 19 1013.1 0 15.4 23.4 33.0 86.4 75.2 257.0
17/04 09:00 13.5 51 5.97 3.5 19 1013.1 0 14.0 21.9 29.9 77.9 65.6 223.4
16/04 09:00 14.5 67 8.33 8.6 0 1013.1 0 19.0 25.3 38.4 100.7 94.0 323.2
15/04 09:00 12.5 60 6.6 4.9 4 1013.1 0 15.4 23.1 32.6 85.2 74.2 253.4
13/04 09:00 15.5 58 7.67 7.4 4 1013.1 0 17.5 24.0 35.4 92.6 84.5 289.9
12/04 09:00 12 53 5.65 2.9 9 1013.1 0 13.4 21.8 29.3 76.3 62.9 213.9
11/04 09:00 12.5 54 5.94 3.5 28 1013.1 2 14.0 22.1 30.1 78.6 66.0 224.9
07/04 09:00 17.5 80 11.93 14 9 1013.1 6 26.5 30.3 51.5 135.7 138.2 477.9
06/04 09:00 15.8 81 10.9 12.5 4 1013.1 0.4 24.4 29.1 48.2 126.8 126.7 437.7
05/04 09:00 14 89 10.74 12.2 9 1013.1 24.2 29.4 48.6 127.9 127.4 440.0
04/04 09:00 10.5 69 6.69 5 0 1013.1 0 15.7 23.8 33.8 88.3 77.2 263.9
03/04 09:00 13 50 5.67 2.8 15 1013.1 0 13.4 21.6 29.0 75.5 62.4 212.2
02/04 09:00 16.5 67 9.41 10.3 9 1013.1 0 21.2 26.4 41.6 109.4 105.5 363.7
01/04 09:00 18.5 90 14.24 16.8 4 1013.1 0 31.4 34.0 61.0 160.9 169.6 587.6
31/03 09:00 19 62 10.1 11.7 0 1013.1 0 22.5 26.8 43.0 113.2 111.0 383.3
30/03 09:00 17.5 90 13.42 15.8 4 1013.1 0 29.7 32.9 58.0 153.1 159.6 552.8
29/03 09:00 14.5 73 9.08 9.7 4 1013.1 0 20.6 26.5 41.4 108.6 103.8 357.6
28/03 09:00 15.5 68 8.99 9.7 9 1013.1 0.1 20.3 26.0 40.5 106.3 101.3 349.0
27/03 09:00 11.5 70 7.23 6.2 19 1013.1 13 16.8 24.3 35.4 92.8 83.2 284.8
26/03 09:00 16 84 11.44 13.3 0 1013.1 0 25.5 30.0 50.4 132.6 133.9 463.0
25/03 09:00 18.5 90 14.24 16.8 4 1013.1 3 31.4 34.0 61.0 160.9 169.6 587.6
24/03 09:00 16 94 12.81 15.1 15 1013.1 1 28.5 32.4 56.4 148.7 153.7 532.1
23/03 09:00 21 64 11.72 14.1 9 1013.1 0.2 25.8 28.7 48.4 127.4 129.2 447.1
22/03 09:00 18.5 80 12.66 15.1 9 1013.1 0 28.0 31.2 53.9 142.2 146.6 507.5
21/03 09:00 18.5 71 11.23 13.2 0 1013.1 0 24.9 28.8 47.9 126.1 126.8 438.3
20/03 09:00 18 70 10.75 12.6 9 1013.1 0 24.0 28.1 46.2 121.7 121.1 418.4
19/03 09:00 15.5 78 10.31 11.8 9 1013.1 0 23.2 28.2 45.9 120.7 119.0 410.8
18/03 09:00 17.5 80 11.93 14 4 1013.1 0.4 26.5 30.3 51.5 135.7 138.2 477.9
17/03 09:00 17 70 10.13 11.5 0 1013.1 4 22.7 27.4 44.3 116.4 114.3 394.6
16/03 09:00 18.5 83 13.13 15.6 9 1013.1 0 29.0 32.0 56.0 147.7 153.3 531.0
15/03 09:00 17.5 70 10.44 12 4 1013.1 0 23.3 27.8 45.2 119.0 117.7 406.5
14/03 09:00 16.5 57 8 8 4 1013.1 0 18.2 24.2 36.2 94.8 87.5 300.6
13/03 09:00 13 55 6.24 4.2 15 1013.1 0.1 14.6 22.4 31.0 81.1 69.3 236.3
12/03 09:00 14 62 7.48 6.8 19 1013.1 11 17.2 24.1 35.3 92.5 83.7 287.0
11/03 09:00 18.5 71 11.23 13.2 4 1013.1 0.4 24.9 28.8 47.9 126.1 126.8 438.3
10/03 09:00 18 80 12.29 14.5 4 1013.1 0 27.2 30.7 52.7 138.9 142.3 492.5
09/03 09:00 16.5 60 8.42 8.7 4 1013.1 0 19.1 24.8 37.8 99.1 92.8 319.1
08/03 09:00 14 67 8.08 8 4 1013.1 0.8 18.5 25.0 37.6 98.7 91.4 313.8
07/03 09:00 17 47 6.8 5.6 4 1013.1 0 15.6 22.3 31.5 82.5 72.4 247.9
06/03 09:00 19 62 10.1 11.7 4 1013.1 0 22.5 26.8 43.0 113.2 111.0 383.3
05/03 09:00 17 65 9.4 10.4 0 1013.1 0 21.1 26.2 41.3 108.6 104.7 360.9
04/03 09:00 16 84 11.44 13.3 0 1013.1 0 25.5 30.0 50.4 132.6 133.9 463.0
03/03 09:00 14.5 89 11.07 12.7 4 1013.1 7 24.8 29.8 49.7 130.9 131.3 453.5
02/03 09:00 18.5 93 14.71 17.3 19 1013.1 7 32.4 34.9 63.1 166.7 176.6 612.2
01/03 09:00 18.5 90 14.24 16.8 15 1013.1 0 31.4 34.0 61.0 160.9 169.6 587.6
28/02 09:00 16 94 12.81 15.1 0 1013.1 0.2 28.5 32.4 56.4 148.7 153.7 532.1
27/02 09:00 16.5 74 10.39 11.9 4 1013.1 0 23.3 28.0 45.6 120.0 118.6 409.4
26/02 09:00 15 73 9.36 10.2 4 1013.1 0 21.2 26.8 42.2 111.0 106.9 368.4
25/02 09:00 16.5 69 9.69 10.9 4 1013.1 0 21.8 26.9 42.8 112.4 109.2 376.6
24/02 09:00 16 69 9.4 10.3 0 1013.1 0 21.2 26.5 41.9 110.0 106.0 365.5
23/02 09:00 17 51 7.38 6.9 9 1013.1 0 16.9 23.1 33.6 88.1 79.4 272.2
22/02 09:00 18.5 95 15.03 17.7 15 1013.1 0 33.1 35.5 64.6 170.6 181.5 629.1
21/02 09:00 18 85 13.05 15.4 4 1013.1 0 28.9 32.1 56.0 147.7 153.2 530.4
20/02 09:00 17.5 85 12.67 14.9 9 1013.1 0 28.1 31.6 54.7 144.2 148.7 514.7
19/02 09:00 17.5 70 10.44 12 4 1013.1 0 23.3 27.8 45.2 119.0 117.7 406.5
18/02 09:00 15.5 73 9.65 10.8 4 1013.1 3 21.7 27.1 43.1 113.4 110.1 379.5
17/02 09:00 19 85 13.85 16.5 19 1013.1 0 30.5 33.1 58.8 155.2 162.7 563.8
16/02 09:00 18 75 11.52 13.6 15 1013.1 0 25.6 29.4 49.4 130.2 131.6 455.0
15/02 09:00 18 80 12.29 14.5 0 1013.1 0 27.2 30.7 52.7 138.9 142.3 492.5
14/02 09:00 17 90 13.02 15.3 4 1013.1 0.4 28.9 32.4 56.6 149.3 154.8 535.8
13/02 09:00 16 54 7.36 6.9 9 1013.1 0 16.9 23.4 34.0 89.0 80.1 274.7
12/02 09:00 14 56 6.75 5.5 9 1013.1 0 15.6 22.9 32.5 85.1 74.6 255.1
11/02 09:00 19 90 14.67 17.4 15 1013.1 0.1 32.3 34.6 62.5 165.1 174.8 606.1
10/02 09:00 17.5 95 14.16 16.7 4 1013.1 4 31.3 34.3 61.4 162.1 170.6 591.2
09/02 09:00 18.5 75 11.87 14.1 4 1013.1 2 26.3 29.8 50.6 133.2 135.5 468.9
08/02 09:00 18.5 80 12.66 15.1 9 1013.1 0 28.0 31.2 53.9 142.2 146.6 507.5
07/02 09:00 19.8 53 9.05 9.9 0 1013.1 0 20.3 24.9 38.6 101.3 96.7 333.2
06/02 09:00 15.8 61 8.21 8.3 4 1013.1 0 18.7 24.7 37.3 97.8 90.9 312.6
05/02 09:00 19.5 46 7.72 7.8 9 1013.1 0 17.5 23.0 33.8 88.6 80.9 277.9
04/02 09:00 16.5 74 10.39 11.9 0 1013.1 0 23.3 28.0 45.6 120.0 118.6 409.4
03/02 09:00 16 59 8.04 8.1 4 1013.1 0 18.3 24.4 36.5 95.8 88.5 304.3
02/02 09:00 14.5 50 6.22 4.3 19 1013.1 0.6 14.5 22.0 30.4 79.4 67.7 231.1
01/02 09:00 18.5 49 7.75 7.7 9 1013.1 0 17.6 23.3 34.4 90.0 82.3 282.6
31/01 09:00 17.5 85 12.67 14.9 4 1013.1 0 28.1 31.6 54.7 144.2 148.7 514.7
30/01 09:00 17.8 68 10.32 11.8 0 1013.1 0 23.1 27.5 44.6 117.3 115.6 399.4
29/01 09:00 16.2 82 11.31 13.2 0 1013.1 0.1 25.3 29.7 49.7 130.8 131.7 455.4
28/01 09:00 20.5 72 12.81 15.4 0 1013.1 0 28.2 30.7 53.2 140.3 144.9 501.8
27/01 09:00 17.5 70 10.44 12 15 1013.1 0 23.3 27.8 45.2 119.0 117.7 406.5
25/01 09:00 19 76 12.38 14.7 15 1013.1 0 27.4 30.5 52.4 138.1 141.7 490.5
24/01 09:00 16.5 74 10.39 11.9 0 1013.1 0 23.3 28.0 45.6 120.0 118.6 409.4
23/01 09:00 15 63 8.08 8 9 1013.1 0.4 18.4 24.7 37.2 97.4 90.2 309.9
22/01 09:00 13.5 66 7.72 7.4 19 1013.1 16 17.7 24.6 36.5 95.5 87.3 299.5
21/01 09:00 17 85 12.3 14.4 0 1013.1 0 27.3 31.1 53.4 140.8 144.3 499.4

Last Refresh: 08-May-2026 12:09:35

Bureau of Meteorology